Time;durP1;ratioP1;P1;durP2;ratioP2;P2;SDS_P1;SDS_P2;PMS_P1;PMS_P2;Temp;Humidity;BMP_temperature;BMP_pressure;BME280_temperature;BME280_humidity;BME280_pressure;Samples;Min_cycle;Max_cycle;Signal;HPM_P1;HPM_P2
2022/08/04 00:00:19;;;;;;;6.65;1.98;;;26.90;76.80;;;;;;5098327;28;20035;-71
2022/08/04 00:03:05;;;;;;;3.25;1.85;;;26.90;76.90;;;;;;5098582;28;20020;-71
2022/08/04 00:05:51;;;;;;;4.03;1.88;;;26.90;78.20;;;;;;5083137;28;20047;-71
2022/08/04 00:08:47;;;;;;;3.03;1.85;;;26.90;78.70;;;;;;5098405;28;20020;-71
2022/08/04 00:11:22;;;;;;;3.67;2.28;;;26.90;78.80;;;;;;5097086;28;20024;-70
2022/08/04 00:14:05;;;;;;;2.60;1.90;;;26.80;78.70;;;;;;5092488;28;20027;-70
2022/08/04 00:16:39;;;;;;;3.88;2.17;;;26.80;79.20;;;;;;5089962;28;20025;-71
2022/08/04 00:19:30;;;;;;;6.72;2.60;;;26.80;79.10;;;;;;5097179;28;20073;-71
2022/08/04 00:22:01;;;;;;;6.45;1.83;;;26.80;78.90;;;;;;5082860;28;20115;-72
2022/08/04 00:24:30;;;;;;;4.25;1.90;;;26.80;78.70;;;;;;5083652;28;20024;-71
2022/08/04 00:26:56;;;;;;;4.95;2.33;;;26.80;78.50;;;;;;5082445;28;20078;-71
2022/08/04 00:29:24;;;;;;;2.80;1.50;;;26.70;78.60;;;;;;5080425;28;20074;-72
2022/08/04 00:31:50;;;;;;;6.32;1.67;;;26.70;78.30;;;;;;5085294;28;20507;-71
2022/08/04 00:34:16;;;;;;;3.20;2.13;;;26.60;79.70;;;;;;5096803;28;20075;-71
2022/08/04 00:36:43;;;;;;;5.15;1.60;;;26.60;79.20;;;;;;5095497;28;20111;-71
2022/08/04 00:39:13;;;;;;;3.03;1.70;;;26.50;79.30;;;;;;5095694;28;20032;-71
2022/08/04 00:41:56;;;;;;;4.03;2.67;;;26.40;79.40;;;;;;5093909;28;20107;-71
2022/08/04 00:44:56;;;;;;;6.28;1.95;;;26.30;80.10;;;;;;5093449;28;20221;-71
2022/08/04 00:47:39;;;;;;;2.55;1.77;;;26.10;81.00;;;;;;5096850;28;20020;-71
2022/08/04 00:50:09;;;;;;;3.17;2.10;;;26.00;81.50;;;;;;5086684;28;20481;-71
2022/08/04 00:53:01;;;;;;;2.38;1.77;;;25.90;82.60;;;;;;5096322;28;20113;-71
2022/08/04 00:55:59;;;;;;;4.00;2.35;;;25.80;82.90;;;;;;5087485;28;20028;-71
2022/08/04 00:58:43;;;;;;;5.65;1.60;;;25.70;83.80;;;;;;5064732;28;20060;-71
2022/08/04 01:01:37;;;;;;;5.75;2.13;;;25.70;83.90;;;;;;5089835;28;20034;-71
2022/08/04 01:04:43;;;;;;;3.92;2.03;;;25.50;84.90;;;;;;5078683;28;20028;-71
2022/08/04 01:07:46;;;;;;;2.85;1.92;;;25.40;84.80;;;;;;5093654;28;20036;-71
2022/08/04 01:10:37;;;;;;;2.85;1.98;;;25.40;84.20;;;;;;5093771;28;20073;-71
2022/08/04 01:13:28;;;;;;;4.45;1.80;;;25.30;84.30;;;;;;5085527;28;20077;-71
2022/08/04 01:16:01;;;;;;;3.53;1.50;;;25.20;83.10;;;;;;5091911;28;20145;-72
2022/08/04 01:18:42;;;;;;;2.45;1.65;;;25.20;82.30;;;;;;5089988;28;20024;-71
2022/08/04 01:21:29;;;;;;;2.28;1.30;;;25.20;82.50;;;;;;5096282;28;20027;-71
2022/08/04 01:24:33;;;;;;;2.22;1.55;;;25.20;82.20;;;;;;5089892;28;20396;-71
2022/08/04 01:27:47;;;;;;;3.95;1.52;;;25.10;83.80;;;;;;5081148;28;20037;-71
2022/08/04 01:30:13;;;;;;;3.60;1.50;;;25.00;83.30;;;;;;5091431;28;20442;-71
2022/08/04 01:33:05;;;;;;;2.03;1.40;;;25.00;82.90;;;;;;5085782;28;20017;-71
2022/08/04 01:35:41;;;;;;;2.88;1.77;;;24.90;82.80;;;;;;5087149;28;20036;-72
2022/08/04 01:38:28;;;;;;;3.65;1.60;;;24.90;81.70;;;;;;5094907;28;20034;-72
2022/08/04 01:40:59;;;;;;;1.58;1.23;;;24.90;80.90;;;;;;5095028;28;20032;-71
2022/08/04 01:43:28;;;;;;;2.03;1.40;;;25.00;80.50;;;;;;5095376;28;20457;-71
2022/08/04 01:46:00;;;;;;;3.13;1.58;;;25.00;79.00;;;;;;5095793;28;20032;-72
2022/08/04 01:48:27;;;;;;;3.10;1.80;;;25.00;79.50;;;;;;5093877;28;20012;-71
2022/08/04 01:50:57;;;;;;;5.45;1.77;;;24.90;81.00;;;;;;5090530;28;20484;-71
2022/08/04 01:53:29;;;;;;;2.97;1.67;;;24.80;82.10;;;;;;5093732;28;20040;-70
2022/08/04 01:55:56;;;;;;;2.67;1.75;;;24.70;82.90;;;;;;5087231;28;20025;-71
2022/08/04 01:58:29;;;;;;;2.60;1.83;;;24.60;83.50;;;;;;5087190;28;20081;-71
2022/08/04 02:01:01;;;;;;;4.13;1.75;;;24.50;84.00;;;;;;5083947;28;20381;-73
2022/08/04 02:03:28;;;;;;;2.58;1.85;;;24.40;84.50;;;;;;5092996;28;20442;-73
2022/08/04 02:06:16;;;;;;;2.83;1.55;;;24.30;85.50;;;;;;5096623;28;20236;-71
2022/08/04 02:08:53;;;;;;;2.40;1.42;;;24.30;85.00;;;;;;5093790;28;20452;-74
2022/08/04 02:11:23;;;;;;;5.43;2.55;;;24.30;85.60;;;;;;5095315;28;20016;-73
2022/08/04 02:14:10;;;;;;;3.55;1.98;;;24.20;86.90;;;;;;5095404;28;20050;-73
2022/08/04 02:16:46;;;;;;;4.32;2.17;;;24.20;88.40;;;;;;5084013;28;20027;-74
2022/08/04 02:19:24;;;;;;;4.97;2.45;;;24.20;90.80;;;;;;5078628;28;20028;-73
2022/08/04 02:21:56;;;;;;;5.15;2.25;;;24.20;89.60;;;;;;5077752;28;20504;-73
2022/08/04 02:24:26;;;;;;;4.43;2.15;;;24.20;90.10;;;;;;5086699;28;20028;-73
2022/08/04 02:26:55;;;;;;;7.78;2.50;;;24.10;90.70;;;;;;5093816;28;20020;-71
2022/08/04 02:29:41;;;;;;;3.55;2.25;;;24.10;91.40;;;;;;5095044;28;20038;-71
2022/08/04 02:32:37;;;;;;;3.65;2.33;;;24.00;91.70;;;;;;5086474;28;20020;-73
2022/08/04 02:35:10;;;;;;;3.92;2.03;;;23.90;93.10;;;;;;5091371;28;20074;-74
2022/08/04 02:37:37;;;;;;;6.72;2.83;;;23.90;93.40;;;;;;5095531;28;20480;-73
2022/08/04 02:40:05;;;;;;;6.68;3.13;;;23.80;96.40;;;;;;5084783;28;20037;-73
2022/08/04 02:42:32;;;;;;;3.92;2.53;;;23.80;96.10;;;;;;5100231;28;20016;-73
2022/08/04 02:44:59;;;;;;;7.13;3.33;;;23.80;97.20;;;;;;5089991;28;20386;-73
2022/08/04 02:47:27;;;;;;;6.38;3.42;;;23.80;99.90;;;;;;5087900;28;20065;-72
2022/08/04 02:49:56;;;;;;;8.55;4.13;;;23.80;99.90;;;;;;5089078;28;20434;-73
2022/08/04 02:52:24;;;;;;;8.90;3.30;;;23.80;99.90;;;;;;5086777;28;20035;-73
2022/08/04 02:54:58;;;;;;;6.22;3.67;;;23.80;99.90;;;;;;5087718;28;20032;-73
2022/08/04 02:57:29;;;;;;;6.38;3.80;;;23.80;99.90;;;;;;5085300;28;20044;-73
2022/08/04 03:00:15;;;;;;;9.05;3.38;;;23.80;99.90;;;;;;5098440;28;20016;-74
2022/08/04 03:03:12;;;;;;;5.22;3.63;;;23.80;99.90;;;;;;5097389;28;20115;-74
2022/08/04 03:06:06;;;;;;;8.20;3.75;;;23.70;99.90;;;;;;5097725;28;20027;-73
2022/08/04 03:08:50;;;;;;;6.57;3.75;;;23.70;99.90;;;;;;5097493;28;20024;-73
2022/08/04 03:12:09;;;;;;;9.73;4.30;;;23.60;99.90;;;;;;5097784;28;20035;-74
2022/08/04 03:15:02;;;;;;;9.80;3.95;;;23.60;99.90;;;;;;5059041;28;20485;-73
2022/08/04 03:18:03;;;;;;;9.02;4.38;;;23.50;99.90;;;;;;5079712;28;20012;-73
2022/08/04 03:20:53;;;;;;;;;;;23.50;99.90;;;;;;5074203;28;20032;-73
2022/08/04 03:23:43;;;;;;;7.68;3.92;;;23.40;99.90;;;;;;5096020;28;19904;-73
2022/08/04 03:26:31;;;;;;;8.43;3.88;;;23.40;99.90;;;;;;5083367;28;20024;-73
2022/08/04 03:29:05;;;;;;;5.72;3.95;;;23.40;99.90;;;;;;5085904;28;20503;-73
2022/08/04 03:32:27;;;;;;;15.30;3.90;;;23.30;99.90;;;;;;5090870;28;20024;-73
2022/08/04 03:35:23;;;;;;;10.35;3.58;;;23.40;99.90;;;;;;5095256;28;20021;-73
2022/08/04 03:38:13;;;;;;;11.45;4.47;;;23.30;99.90;;;;;;5084284;28;20055;-74
2022/08/04 03:41:01;;;;;;;9.18;3.67;;;23.30;99.90;;;;;;5093661;28;20017;-73
2022/08/04 03:43:52;;;;;;;7.43;3.45;;;23.30;99.90;;;;;;5097537;28;20385;-73
2022/08/04 03:46:40;;;;;;;;;;;23.30;99.90;;;;;;5080746;28;20052;-72
2022/08/04 03:49:28;;;;;;;12.90;3.08;;;23.30;99.90;;;;;;5091274;28;20300;-72
2022/08/04 03:56:04;;;;;;;7.05;3.22;;;23.20;99.90;;;;;;5097342;28;20102;-73
2022/08/04 03:58:47;;;;;;;5.60;3.58;;;23.20;99.90;;;;;;5072723;28;20021;-74
2022/08/04 04:01:41;;;;;;;8.35;3.22;;;23.10;99.90;;;;;;5073126;28;20028;-72
2022/08/04 04:04:16;;;;;;;10.07;4.45;;;23.10;99.90;;;;;;5086489;28;20037;-73
2022/08/04 04:07:01;;;;;;;9.38;3.92;;;23.00;99.90;;;;;;5084812;28;20035;-73
2022/08/04 04:09:51;;;;;;;8.32;4.28;;;23.00;99.90;;;;;;5090554;28;20384;-73
2022/08/04 04:12:38;;;;;;;6.53;3.47;;;23.00;99.90;;;;;;5086282;28;20020;-73
2022/08/04 04:15:32;;;;;;;6.85;3.50;;;22.90;99.90;;;;;;5084880;28;20385;-73
2022/08/04 04:18:37;;;;;;;9.35;3.90;;;22.90;99.90;;;;;;5080068;28;20104;-74
2022/08/04 04:21:38;;;;;;;8.65;3.88;;;22.90;99.90;;;;;;5070412;28;20119;-73
2022/08/04 04:24:42;;;;;;;8.43;3.75;;;22.80;99.90;;;;;;5085211;28;20032;-73
2022/08/04 04:27:44;;;;;;;10.50;4.20;;;22.80;99.90;;;;;;5092447;28;20044;-73
2022/08/04 04:30:35;;;;;;;8.05;3.85;;;22.70;99.90;;;;;;5093204;28;20021;-73
2022/08/04 04:33:13;;;;;;;11.88;4.28;;;22.60;99.90;;;;;;5094466;28;20473;-73
2022/08/04 04:35:50;;;;;;;7.93;4.15;;;22.50;99.90;;;;;;5096395;28;20025;-73
2022/08/04 04:38:43;;;;;;;8.00;4.10;;;22.50;99.90;;;;;;5092085;28;20028;-73
2022/08/04 04:41:35;;;;;;;7.38;3.90;;;22.50;99.90;;;;;;5083965;28;20020;-72
2022/08/04 04:44:07;;;;;;;18.15;4.70;;;22.40;99.90;;;;;;5087022;28;20468;-73
2022/08/04 04:46:40;;;;;;;9.52;4.25;;;22.40;99.90;;;;;;5096582;28;20024;-73
2022/08/04 04:49:24;;;;;;;8.98;4.10;;;22.30;99.90;;;;;;5085085;28;20370;-73
2022/08/04 04:52:12;;;;;;;11.57;5.70;;;22.30;99.90;;;;;;5080579;28;20013;-73
2022/08/04 04:54:50;;;;;;;13.52;4.72;;;22.20;99.90;;;;;;5083551;28;20486;-73
2022/08/04 04:57:21;;;;;;;7.53;5.00;;;22.20;99.90;;;;;;5083723;28;20042;-73
2022/08/04 04:59:49;;;;;;;;;;;22.10;99.90;;;;;;5096772;28;20564;-72
2022/08/04 05:02:46;;;;;;;7.80;4.75;;;22.10;99.90;;;;;;5093816;28;19951;-73
2022/08/04 05:05:40;;;;;;;7.93;5.05;;;22.10;99.90;;;;;;5094812;28;20050;-73
2022/08/04 05:08:15;;;;;;;16.40;5.22;;;22.10;99.90;;;;;;5083004;28;20048;-73
2022/08/04 05:11:03;;;;;;;16.42;5.18;;;22.10;99.90;;;;;;5091796;28;20070;-73
2022/08/04 05:13:48;;;;;;;11.50;4.95;;;22.20;99.90;;;;;;5086195;28;20035;-73
2022/08/04 05:16:39;;;;;;;7.85;5.78;;;22.20;99.90;;;;;;5078976;28;20024;-73
2022/08/04 05:19:32;;;;;;;11.07;4.90;;;22.20;99.90;;;;;;5078478;28;20035;-73
2022/08/04 05:22:09;;;;;;;9.35;5.50;;;22.20;99.90;;;;;;5094919;28;20024;-74
2022/08/04 05:24:39;;;;;;;11.70;5.22;;;22.20;99.90;;;;;;5096150;28;20039;-73
2022/08/04 05:27:15;;;;;;;9.93;6.20;;;22.30;99.90;;;;;;5094718;28;20028;-73
2022/08/04 05:29:50;;;;;;;6.95;4.80;;;22.40;99.90;;;;;;5095236;28;20028;-73
2022/08/04 05:32:22;;;;;;;11.10;5.15;;;22.40;99.90;;;;;;5087637;28;20162;-73
2022/08/04 05:35:03;;;;;;;8.07;5.07;;;22.50;99.90;;;;;;5096039;28;20034;-73
2022/08/04 05:37:30;;;;;;;10.13;5.00;;;22.50;99.90;;;;;;5094860;28;20449;-73
2022/08/04 05:40:02;;;;;;;9.85;5.38;;;22.60;99.90;;;;;;5095649;28;20455;-73
2022/08/04 05:42:31;;;;;;;12.93;5.97;;;22.70;99.90;;;;;;5095586;28;20028;-73
2022/08/04 05:44:58;;;;;;;14.77;4.80;;;22.80;99.90;;;;;;5083814;28;20046;-73
2022/08/04 05:47:24;;;;;;;10.63;5.25;;;22.90;99.90;;;;;;5095008;28;20017;-73
2022/08/04 05:49:51;;;;;;;17.50;4.78;;;23.00;99.90;;;;;;5084074;28;20036;-73
2022/08/04 05:52:18;;;;;;;12.27;4.93;;;23.10;99.90;;;;;;5096194;28;20028;-73
2022/08/04 05:54:45;;;;;;;9.65;5.28;;;23.10;99.90;;;;;;5093574;28;20040;-73
2022/08/04 05:57:11;;;;;;;10.20;5.63;;;23.10;99.90;;;;;;5094601;28;20053;-73
2022/08/04 05:59:45;;;;;;;10.23;4.82;;;23.10;99.90;;;;;;5089359;28;20024;-73
2022/08/04 06:02:16;;;;;;;8.60;4.90;;;23.20;99.90;;;;;;5093934;28;20028;-73
2022/08/04 06:04:46;;;;;;;8.38;4.93;;;23.30;99.90;;;;;;5087714;28;20442;-73
2022/08/04 06:07:12;;;;;;;12.15;4.70;;;23.30;99.90;;;;;;5090140;28;20544;-73
2022/08/04 06:09:40;;;;;;;11.48;4.00;;;23.50;99.90;;;;;;5094298;28;20081;-73
2022/08/04 06:12:18;;;;;;;14.35;4.97;;;23.60;99.90;;;;;;5096636;28;20031;-73
2022/08/04 06:14:48;;;;;;;7.50;3.83;;;23.70;99.90;;;;;;5094125;28;20409;-73
2022/08/04 06:17:24;;;;;;;8.73;4.80;;;23.70;99.90;;;;;;5091036;28;20096;-73
2022/08/04 06:19:55;;;;;;;8.98;4.95;;;23.90;99.90;;;;;;5099117;28;20032;-73
2022/08/04 06:22:23;;;;;;;11.60;5.07;;;23.90;99.90;;;;;;5087580;28;20484;-73
2022/08/04 06:24:51;;;;;;;9.48;4.97;;;23.90;99.90;;;;;;5098402;28;21205;-73
2022/08/04 06:27:17;;;;;;;11.75;5.07;;;24.00;99.90;;;;;;5099248;28;20492;-73
2022/08/04 06:29:45;;;;;;;11.52;5.25;;;23.90;99.90;;;;;;5095761;28;20020;-72
2022/08/04 06:32:35;;;;;;;10.05;4.65;;;23.90;99.90;;;;;;5091223;28;20099;-73
2022/08/04 06:35:08;;;;;;;10.65;4.55;;;23.90;99.90;;;;;;5087281;28;20128;-73
2022/08/04 06:37:36;;;;;;;8.52;4.22;;;23.80;99.90;;;;;;5092716;28;20020;-75
2022/08/04 06:40:03;;;;;;;8.85;4.80;;;23.90;99.90;;;;;;5099041;28;20020;-74
2022/08/04 06:42:30;;;;;;;9.48;4.70;;;24.00;99.90;;;;;;5096391;28;20016;-74
2022/08/04 06:44:58;;;;;;;10.88;4.80;;;24.10;99.90;;;;;;5094007;28;20035;-75
2022/08/04 06:47:24;;;;;;;11.38;4.82;;;24.10;99.90;;;;;;5099228;28;20048;-75
2022/08/04 06:49:53;;;;;;;9.05;4.82;;;24.20;99.90;;;;;;5085687;28;20286;-76
2022/08/04 06:52:20;;;;;;;10.57;4.72;;;24.20;99.90;;;;;;5097343;28;20020;-76
2022/08/04 06:54:49;;;;;;;9.65;4.60;;;24.30;99.90;;;;;;5088884;28;20024;-75
2022/08/04 06:57:21;;;;;;;9.48;5.03;;;24.30;99.90;;;;;;5090870;28;20016;-75
2022/08/04 06:59:52;;;;;;;9.35;4.50;;;24.40;99.90;;;;;;5094471;28;20066;-75
2022/08/04 07:02:24;;;;;;;7.78;4.85;;;24.60;99.90;;;;;;5094594;28;20051;-75
2022/08/04 07:04:50;;;;;;;9.60;4.72;;;24.70;99.90;;;;;;5094813;28;20012;-75
2022/08/04 07:07:17;;;;;;;11.52;4.82;;;24.90;99.90;;;;;;5092512;28;20017;-75
2022/08/04 07:09:43;;;;;;;11.20;4.45;;;25.20;99.90;;;;;;5094895;28;20020;-75
2022/08/04 07:12:10;;;;;;;11.95;5.38;;;25.20;99.90;;;;;;5091788;28;20132;-75
2022/08/04 07:14:38;;;;;;;9.32;4.88;;;25.20;99.90;;;;;;5096983;28;20165;-74
2022/08/04 07:17:06;;;;;;;14.18;5.70;;;25.00;99.90;;;;;;5094198;28;20050;-74
2022/08/04 07:19:36;;;;;;;8.55;5.25;;;25.00;99.90;;;;;;5090397;28;20022;-75
2022/08/04 07:22:05;;;;;;;8.70;4.22;;;25.10;99.90;;;;;;5096390;28;20023;-75
2022/08/04 07:24:33;;;;;;;12.33;5.27;;;25.20;99.90;;;;;;5089416;28;20648;-75
2022/08/04 07:26:59;;;;;;;11.40;4.38;;;25.50;99.90;;;;;;5094572;28;20081;-75
2022/08/04 07:29:26;;;;;;;15.27;4.93;;;25.70;99.90;;;;;;5087388;28;20502;-74
2022/08/04 07:31:53;;;;;;;10.77;4.68;;;26.10;99.90;;;;;;5086464;28;20020;-74
2022/08/04 07:34:20;;;;;;;13.20;4.28;;;26.20;99.90;;;;;;5087530;28;20020;-73
2022/08/04 07:36:51;;;;;;;9.65;4.20;;;26.10;99.90;;;;;;5077258;28;20045;-74
2022/08/04 07:39:17;;;;;;;8.48;4.05;;;26.10;99.90;;;;;;5088668;28;20017;-73
2022/08/04 07:41:44;;;;;;;10.27;4.50;;;26.20;99.90;;;;;;5080904;28;20036;-73
2022/08/04 07:44:13;;;;;;;8.68;4.75;;;26.10;99.90;;;;;;5078742;28;20016;-74
2022/08/04 07:46:39;;;;;;;11.05;4.50;;;26.00;99.90;;;;;;5085785;28;20052;-73
2022/08/04 07:49:05;;;;;;;9.60;4.55;;;25.90;99.90;;;;;;5086959;28;20052;-73
2022/08/04 07:51:34;;;;;;;7.32;4.25;;;26.00;99.90;;;;;;5082963;28;20025;-71
2022/08/04 07:54:02;;;;;;;10.68;4.50;;;25.80;99.90;;;;;;5079365;28;20119;-71
2022/08/04 07:56:29;;;;;;;11.82;4.57;;;26.10;99.90;;;;;;5086531;28;20024;-72
2022/08/04 07:58:55;;;;;;;8.00;4.57;;;26.10;99.90;;;;;;5082352;28;20028;-72
2022/08/04 08:01:23;;;;;;;10.52;5.35;;;26.10;99.90;;;;;;5088616;28;20047;-72
2022/08/04 08:03:50;;;;;;;5.72;4.15;;;25.90;99.90;;;;;;5093760;28;20128;-71
2022/08/04 08:06:16;;;;;;;13.23;5.47;;;25.70;99.90;;;;;;5092002;28;20035;-71
2022/08/04 08:08:42;;;;;;;9.80;4.40;;;25.60;99.90;;;;;;5090990;28;20024;-72
2022/08/04 08:11:08;;;;;;;9.73;4.72;;;25.70;99.90;;;;;;5091670;28;20031;-72
2022/08/04 08:13:35;;;;;;;11.55;4.05;;;25.80;99.90;;;;;;5090694;28;20103;-71
2022/08/04 08:16:01;;;;;;;7.40;4.47;;;25.90;99.90;;;;;;5091196;28;21025;-72
2022/08/04 08:18:28;;;;;;;7.40;4.25;;;26.10;99.90;;;;;;5088421;28;20028;-71
2022/08/04 08:20:54;;;;;;;12.18;4.57;;;26.40;99.90;;;;;;5087978;28;20073;-71
2022/08/04 08:23:21;;;;;;;7.78;4.47;;;26.70;99.90;;;;;;5081156;28;20056;-72
2022/08/04 08:25:47;;;;;;;11.60;4.72;;;26.90;99.90;;;;;;5080465;28;20032;-71
2022/08/04 08:28:14;;;;;;;10.45;4.32;;;26.90;99.90;;;;;;5087456;28;20016;-71
2022/08/04 08:30:40;;;;;;;8.15;4.50;;;26.90;99.90;;;;;;5081286;28;20048;-71
2022/08/04 08:33:11;;;;;;;9.70;4.55;;;27.00;99.90;;;;;;5081552;28;20035;-71
2022/08/04 08:35:52;;;;;;;6.15;3.67;;;27.10;99.90;;;;;;5084383;28;20489;-71
2022/08/04 08:38:26;;;;;;;9.38;3.97;;;27.30;99.90;;;;;;5081561;28;20027;-71
2022/08/04 08:41:05;;;;;;;4.63;3.75;;;27.40;99.90;;;;;;5083355;28;20024;-72
2022/08/04 08:44:01;;;;;;;19.77;5.65;;;27.60;99.90;;;;;;5080479;28;20031;-72
2022/08/04 08:46:40;;;;;;;10.02;3.95;;;27.80;99.90;;;;;;5081828;28;20020;-72
2022/08/04 08:49:22;;;;;;;7.97;4.40;;;27.80;99.90;;;;;;5084662;28;20544;-71
2022/08/04 08:51:50;;;;;;;12.13;4.18;;;27.50;99.90;;;;;;5079122;28;20027;-72
2022/08/04 08:54:35;;;;;;;8.27;4.75;;;27.40;99.90;;;;;;5081425;28;20102;-72
2022/08/04 08:57:15;;;;;;;9.77;4.35;;;27.30;99.90;;;;;;5093466;28;20035;-72
2022/08/04 08:59:57;;;;;;;9.48;4.25;;;27.10;99.90;;;;;;5075581;28;20032;-72
2022/08/04 09:02:23;;;;;;;7.55;4.30;;;27.00;99.90;;;;;;5086023;28;20023;-71
2022/08/04 09:05:09;;;;;;;8.32;3.88;;;26.80;99.90;;;;;;5094558;28;20028;-71
2022/08/04 09:08:06;;;;;;;7.90;4.65;;;27.00;99.90;;;;;;5081234;28;20086;-72
2022/08/04 09:10:49;;;;;;;8.55;4.18;;;27.40;99.90;;;;;;5093596;28;20495;-72
2022/08/04 09:13:18;;;;;;;4.88;3.70;;;27.50;99.90;;;;;;5078145;28;20028;-72
2022/08/04 09:16:05;;;;;;;6.55;3.80;;;27.80;99.90;;;;;;5092941;28;20074;-73
2022/08/04 09:18:45;;;;;;;7.50;4.00;;;27.90;99.90;;;;;;5078257;28;20024;-72
2022/08/04 09:21:30;;;;;;;5.60;3.40;;;28.00;99.90;;;;;;5076213;28;20412;-72
2022/08/04 09:24:11;;;;;;;10.85;4.38;;;28.20;99.90;;;;;;5078146;28;20116;-71
2022/08/04 09:27:14;;;;;;;9.18;3.28;;;28.20;99.90;;;;;;5076437;28;20521;-71
2022/08/04 09:29:55;;;;;;;11.48;4.43;;;28.30;99.90;;;;;;5087925;28;20028;-70
2022/08/04 09:32:37;;;;;;;10.15;3.90;;;28.40;99.90;;;;;;5085811;28;20039;-71
2022/08/04 09:35:24;;;;;;;10.23;3.70;;;28.40;99.90;;;;;;5092688;28;20016;-71
2022/08/04 09:38:09;;;;;;;5.70;3.50;;;28.50;99.90;;;;;;5075990;28;20029;-71
2022/08/04 09:41:02;;;;;;;9.45;4.13;;;28.60;99.90;;;;;;5081127;28;20024;-70
2022/08/04 09:43:56;;;;;;;8.02;3.72;;;28.60;99.90;;;;;;5085379;28;20029;-71
2022/08/04 09:46:45;;;;;;;6.95;4.38;;;28.60;99.90;;;;;;5075388;28;20052;-71
2022/08/04 09:49:40;;;;;;;7.47;4.23;;;28.80;99.90;;;;;;5080904;28;20400;-71
2022/08/04 09:52:34;;;;;;;7.78;3.78;;;28.80;99.90;;;;;;5090722;28;20290;-71
2022/08/04 09:55:15;;;;;;;5.45;3.85;;;28.80;99.90;;;;;;5082971;28;20087;-71
2022/08/04 09:57:54;;;;;;;4.43;3.85;;;28.90;99.90;;;;;;5092308;28;20409;-71
2022/08/04 10:00:22;;;;;;;6.10;4.25;;;29.00;99.90;;;;;;5096538;28;20090;-71
2022/08/04 10:02:54;;;;;;;7.38;4.20;;;29.10;99.90;;;;;;5083315;28;20477;-71
2022/08/04 10:05:54;;;;;;;8.00;4.20;;;29.20;99.90;;;;;;5084491;28;20036;-71
2022/08/04 10:08:50;;;;;;;13.90;4.40;;;29.40;99.90;;;;;;5079476;28;20033;-74
2022/08/04 10:11:36;;;;;;;12.85;4.90;;;29.40;99.90;;;;;;5085207;28;20436;-71
2022/08/04 10:14:34;;;;;;;6.47;4.32;;;29.40;99.90;;;;;;5085026;28;20020;-71
2022/08/04 10:17:11;;;;;;;9.93;4.55;;;29.60;99.90;;;;;;5094847;28;20118;-72
2022/08/04 10:19:40;;;;;;;8.38;4.85;;;29.70;99.90;;;;;;5091053;28;20032;-71
2022/08/04 10:22:29;;;;;;;5.73;4.10;;;29.40;99.90;;;;;;5086205;28;20040;-72
2022/08/04 10:25:07;;;;;;;11.60;3.95;;;29.50;99.90;;;;;;5088654;28;20485;-72
2022/08/04 10:27:44;;;;;;;14.65;4.63;;;29.70;99.90;;;;;;5083524;28;20475;-72
2022/08/04 10:30:15;;;;;;;8.90;4.15;;;29.90;99.90;;;;;;5084433;28;20042;-73
2022/08/04 10:32:53;;;;;;;9.15;4.68;;;29.90;99.90;;;;;;5087364;28;20021;-74
2022/08/04 10:35:25;;;;;;;7.00;4.60;;;29.90;99.90;;;;;;5093994;28;20016;-75
2022/08/04 10:38:09;;;;;;;6.00;4.03;;;30.00;99.90;;;;;;5089368;28;20028;-75
2022/08/04 10:40:44;;;;;;;8.10;4.43;;;30.00;99.90;;;;;;5084819;28;20045;-76
2022/08/04 10:43:28;;;;;;;7.28;4.60;;;30.10;99.90;;;;;;5085278;28;20024;-76
2022/08/04 10:46:05;;;;;;;5.72;4.00;;;30.30;99.90;;;;;;5096671;28;20031;-74
2022/08/04 10:48:57;;;;;;;13.95;4.93;;;30.40;99.90;;;;;;5089500;28;20095;-74
2022/08/04 10:51:39;;;;;;;6.90;5.38;;;30.50;99.80;;;;;;5080874;28;20043;-74
2022/08/04 10:54:10;;;;;;;6.78;4.82;;;30.60;99.90;;;;;;5095528;28;20500;-74
2022/08/04 10:56:49;;;;;;;5.68;4.63;;;30.60;99.90;;;;;;5090079;28;20028;-74
2022/08/04 10:59:28;;;;;;;16.70;6.00;;;30.60;99.60;;;;;;5094146;28;20028;-74
2022/08/04 11:02:01;;;;;;;6.88;5.28;;;30.60;99.90;;;;;;5085027;28;20024;-75
2022/08/04 11:04:48;;;;;;;9.77;4.97;;;30.70;99.80;;;;;;5085341;28;20043;-74
2022/08/04 11:07:15;;;;;;;7.85;5.05;;;30.80;99.90;;;;;;5086373;28;20420;-74
2022/08/04 11:09:43;;;;;;;9.30;4.53;;;30.90;99.90;;;;;;5081100;28;20020;-74
2022/08/04 11:12:24;;;;;;;7.78;4.68;;;30.80;99.50;;;;;;5095932;28;20043;-75
2022/08/04 11:15:09;;;;;;;6.05;4.25;;;31.00;99.50;;;;;;5087939;28;20404;-74
2022/08/04 11:17:39;;;;;;;8.38;5.40;;;30.90;99.30;;;;;;5081133;28;20031;-75
2022/08/04 11:20:24;;;;;;;7.07;5.22;;;31.00;99.70;;;;;;5094409;28;20023;-74
2022/08/04 11:22:59;;;;;;;9.25;4.82;;;31.10;99.30;;;;;;5096724;28;20032;-72
2022/08/04 11:25:31;;;;;;;6.60;5.18;;;31.30;98.90;;;;;;5078558;28;20032;-72
2022/08/04 11:28:36;;;;;;;6.43;4.32;;;31.40;98.90;;;;;;5090539;28;20032;-72
2022/08/04 11:31:11;;;;;;;6.47;4.18;;;31.50;99.20;;;;;;5078078;28;20025;-73
2022/08/04 11:33:49;;;;;;;6.88;4.70;;;31.70;98.50;;;;;;5082610;28;20047;-76
2022/08/04 11:36:20;;;;;;;5.57;4.57;;;31.70;98.00;;;;;;5093016;28;20020;-72
2022/08/04 11:38:54;;;;;;;9.13;5.00;;;31.60;97.90;;;;;;5091911;28;20028;-71
2022/08/04 11:41:36;;;;;;;5.13;4.63;;;31.70;98.30;;;;;;5082632;28;20049;-72
2022/08/04 11:44:04;;;;;;;7.18;5.20;;;31.80;98.30;;;;;;5082174;28;20024;-72
2022/08/04 11:46:52;;;;;;;9.20;4.57;;;31.70;98.10;;;;;;5076456;28;20105;-72
2022/08/04 11:49:42;;;;;;;9.48;5.35;;;31.80;97.60;;;;;;5086007;28;20541;-72
2022/08/04 11:52:11;;;;;;;5.38;4.03;;;31.60;97.40;;;;;;5064003;28;20069;-71
2022/08/04 11:54:39;;;;;;;5.70;5.03;;;31.80;98.20;;;;;;5090326;28;20721;-72
2022/08/04 11:57:05;;;;;;;7.47;4.72;;;31.90;97.00;;;;;;5080552;28;20012;-72
2022/08/04 11:59:34;;;;;;;6.07;4.50;;;32.00;96.90;;;;;;5092025;28;20580;-72
2022/08/04 12:02:28;;;;;;;5.43;4.55;;;32.10;96.80;;;;;;5091362;28;20016;-72
2022/08/04 12:04:57;;;;;;;7.88;4.18;;;32.30;97.00;;;;;;5076836;28;20064;-72
2022/08/04 12:07:39;;;;;;;9.70;5.05;;;32.40;96.90;;;;;;5081266;28;20547;-71
2022/08/04 12:10:19;;;;;;;7.93;4.63;;;32.50;96.20;;;;;;5090808;28;20020;-71
2022/08/04 12:13:11;;;;;;;9.30;4.55;;;32.50;95.90;;;;;;5091878;28;20020;-72
2022/08/04 12:15:51;;;;;;;7.00;3.55;;;32.50;95.80;;;;;;5085552;28;20522;-72
2022/08/04 12:18:20;;;;;;;6.87;4.40;;;32.70;95.60;;;;;;5083318;28;20491;-72
2022/08/04 12:20:50;;;;;;;5.93;4.57;;;32.70;95.20;;;;;;5094928;28;20259;-72
2022/08/04 12:23:21;;;;;;;;;;;32.80;95.60;;;;;;5091657;28;20085;-72
2022/08/04 12:25:51;;;;;;;6.55;4.53;;;32.80;94.80;;;;;;5091544;28;19942;-72
2022/08/04 12:28:30;;;;;;;8.35;4.93;;;32.80;94.60;;;;;;5093515;28;20027;-72
2022/08/04 12:31:06;;;;;;;11.35;4.07;;;32.70;94.40;;;;;;5093436;28;20013;-71
2022/08/04 12:33:53;;;;;;;8.35;4.03;;;32.70;94.30;;;;;;5092533;28;20028;-71
2022/08/04 12:36:24;;;;;;;5.97;4.57;;;32.90;94.40;;;;;;5094315;28;20031;-71
2022/08/04 12:38:59;;;;;;;7.43;4.70;;;33.00;94.20;;;;;;5087282;28;20028;-72
2022/08/04 12:41:31;;;;;;;6.60;4.28;;;33.10;93.10;;;;;;5075373;28;20024;-71
2022/08/04 12:44:09;;;;;;;8.35;3.72;;;33.30;93.10;;;;;;5089752;28;20009;-71
2022/08/04 12:46:36;;;;;;;6.38;3.75;;;33.40;92.90;;;;;;5090704;28;20622;-71
2022/08/04 12:49:04;;;;;;;4.97;3.58;;;33.60;92.40;;;;;;5092587;28;20046;-71
2022/08/04 12:51:43;;;;;;;5.00;3.88;;;33.70;92.20;;;;;;5093179;28;20107;-72
2022/08/04 12:54:09;;;;;;;6.53;3.88;;;33.70;91.60;;;;;;5091450;28;20041;-71
2022/08/04 12:56:36;;;;;;;6.20;3.53;;;33.80;91.70;;;;;;5088053;28;20090;-72
2022/08/04 12:59:07;;;;;;;6.03;3.65;;;34.00;90.60;;;;;;5092935;28;20023;-72
2022/08/04 13:01:34;;;;;;;5.63;3.72;;;34.00;90.00;;;;;;5090838;28;20039;-72
2022/08/04 13:04:13;;;;;;;7.03;3.83;;;34.00;90.10;;;;;;5091483;28;20028;-72
2022/08/04 13:06:41;;;;;;;4.95;3.70;;;34.00;90.50;;;;;;5090383;28;20555;-72
2022/08/04 13:09:16;;;;;;;6.93;4.35;;;34.10;90.20;;;;;;5090631;28;20020;-72
2022/08/04 13:11:49;;;;;;;8.13;4.20;;;34.20;90.00;;;;;;5092195;28;20047;-72
2022/08/04 13:14:16;;;;;;;7.65;3.75;;;34.30;87.80;;;;;;5088065;28;20103;-72
2022/08/04 13:16:42;;;;;;;9.23;3.53;;;34.30;87.10;;;;;;5082112;28;20134;-73
2022/08/04 13:19:09;;;;;;;6.63;3.20;;;34.40;86.90;;;;;;5079962;28;20546;-72
2022/08/04 13:21:42;;;;;;;5.88;3.33;;;34.40;85.30;;;;;;5079888;28;20028;-71
2022/08/04 13:24:12;;;;;;;7.03;3.53;;;34.60;84.80;;;;;;5080211;28;20023;-72
2022/08/04 13:26:50;;;;;;;4.85;4.10;;;34.80;85.40;;;;;;5077491;28;20035;-72
2022/08/04 13:29:17;;;;;;;5.05;3.28;;;34.90;84.10;;;;;;5093506;28;20119;-72
2022/08/04 13:31:45;;;;;;;8.00;3.80;;;35.00;83.40;;;;;;5094114;28;20567;-72
2022/08/04 13:34:14;;;;;;;4.97;3.47;;;35.20;82.80;;;;;;5091466;28;20545;-72
2022/08/04 13:36:41;;;;;;;7.38;3.88;;;35.20;79.30;;;;;;5083117;28;20032;-72
2022/08/04 13:39:16;;;;;;;5.57;3.85;;;34.90;79.50;;;;;;5079492;28;20070;-73
2022/08/04 13:41:46;;;;;;;3.83;3.05;;;34.90;81.30;;;;;;5091714;28;20028;-73